createdAt,value
2022-09-27T04:02:56.265Z,6.10
2022-09-27T04:05:28.386Z,8.07
2022-09-27T04:08:00.049Z,4.70
2022-09-27T04:10:31.688Z,5.27
2022-09-27T04:13:03.453Z,3.80
2022-09-27T04:15:35.104Z,4.47
2022-09-27T04:18:08.136Z,5.60
2022-09-27T04:20:39.776Z,2.73
2022-09-27T04:23:11.439Z,4.03
2022-09-27T04:25:43.101Z,4.37
2022-09-27T04:28:14.784Z,6.90
2022-09-27T04:30:46.537Z,5.30
2022-09-27T04:33:19.664Z,4.40
2022-09-27T04:35:51.323Z,6.87
2022-09-27T04:38:23.062Z,4.27
2022-09-27T04:40:54.788Z,4.03
2022-09-27T04:43:26.474Z,7.90
2022-09-27T04:45:58.245Z,8.93
2022-09-27T04:48:31.304Z,9.50
2022-09-27T04:51:02.992Z,3.47
2022-09-27T04:53:34.648Z,6.37
2022-09-27T04:56:06.353Z,4.50
2022-09-27T04:58:38.042Z,4.70
2022-09-27T05:01:09.841Z,5.73
2022-09-27T05:03:42.877Z,4.40
2022-09-27T05:06:14.545Z,5.77
2022-09-27T05:08:46.192Z,5.43
2022-09-27T05:11:17.875Z,7.20
2022-09-27T05:13:49.561Z,3.30
2022-09-27T05:16:21.243Z,6.50
2022-09-27T05:18:54.287Z,6.87
2022-09-27T05:21:25.957Z,4.50
2022-09-27T05:23:57.826Z,5.73
2022-09-27T05:26:29.531Z,5.93
2022-09-27T05:29:01.240Z,4.83
2022-09-27T05:31:32.896Z,4.07
2022-09-27T05:34:05.888Z,6.77
2022-09-27T05:36:37.629Z,8.97
2022-09-27T05:39:09.561Z,9.23
2022-09-27T05:41:41.412Z,5.43
2022-09-27T05:44:13.248Z,4.30
2022-09-27T05:46:45.085Z,6.37
2022-09-27T05:49:18.079Z,10.17
2022-09-27T05:51:49.760Z,8.00
2022-09-27T05:54:21.418Z,3.67
2022-09-27T05:56:54.550Z,7.57
2022-09-27T05:59:26.322Z,7.50
2022-09-27T06:01:58.060Z,8.23
2022-09-27T06:04:31.185Z,6.27
2022-09-27T06:07:02.858Z,5.93
2022-09-27T06:09:34.538Z,5.83
2022-09-27T06:12:06.236Z,8.20
2022-09-27T06:14:37.914Z,10.33
2022-09-27T06:17:09.582Z,3.70
2022-09-27T06:19:42.582Z,5.87
2022-09-27T06:22:14.613Z,4.93
2022-09-27T06:24:46.255Z,6.63
2022-09-27T06:27:17.993Z,6.73
2022-09-27T06:29:49.653Z,5.80
2022-09-27T06:32:21.358Z,8.17
2022-09-27T06:34:54.411Z,7.53
2022-09-27T06:37:26.228Z,5.20
2022-09-27T06:39:57.940Z,5.37
2022-09-27T06:42:29.920Z,7.90
2022-09-27T06:45:01.779Z,5.93
2022-09-27T06:47:35.636Z,9.10
2022-09-27T06:50:09.512Z,5.03
2022-09-27T06:52:47.308Z,4.03
2022-09-27T06:55:18.974Z,5.20
2022-09-27T06:57:54.136Z,3.93
2022-09-27T07:00:25.823Z,3.37
2022-09-27T07:02:58.027Z,5.90
2022-09-27T07:05:31.032Z,5.10
2022-09-27T07:08:02.755Z,3.10
2022-09-27T07:10:35.237Z,6.67
2022-09-27T07:13:07.447Z,2.80
2022-09-27T07:15:40.905Z,3.17
2022-09-27T07:18:12.593Z,3.67
2022-09-27T07:20:45.589Z,4.17
2022-09-27T07:23:17.265Z,3.43
2022-09-27T07:25:48.929Z,2.80
2022-09-27T07:28:22.115Z,6.73
2022-09-27T07:30:54.720Z,4.17
2022-09-27T07:33:26.428Z,4.87
2022-09-27T07:35:59.413Z,4.00
2022-09-27T07:38:31.066Z,4.30
2022-09-27T07:41:06.203Z,2.60
2022-09-27T07:43:37.869Z,9.53
2022-09-27T07:46:09.533Z,3.90
2022-09-27T07:48:41.221Z,5.40
2022-09-27T07:51:14.232Z,3.17
2022-09-27T07:53:45.865Z,4.03
2022-09-27T07:56:17.557Z,4.37
2022-09-27T07:58:49.185Z,3.67
2022-09-27T08:01:20.970Z,7.50
2022-09-27T08:03:52.665Z,4.17
2022-09-27T08:06:25.665Z,1.57
2022-09-27T08:08:57.337Z,3.67
2022-09-27T08:11:29.003Z,9.37
2022-09-27T08:14:00.654Z,3.10
2022-09-27T08:16:33.431Z,3.63
2022-09-27T08:19:05.080Z,3.83
2022-09-27T08:21:38.081Z,2.73
2022-09-27T08:24:09.718Z,3.40
2022-09-27T08:26:41.721Z,3.00
2022-09-27T08:29:13.394Z,5.37
2022-09-27T08:31:45.135Z,4.57
2022-09-27T08:34:16.901Z,6.03
2022-09-27T08:36:50.041Z,3.00
2022-09-27T08:39:21.744Z,2.67
2022-09-27T08:41:55.606Z,2.87
2022-09-27T08:44:29.666Z,5.83
2022-09-27T08:47:04.469Z,3.80
2022-09-27T08:49:37.873Z,3.33
2022-09-27T08:52:13.828Z,3.43
2022-09-27T08:54:45.475Z,4.27
2022-09-27T08:57:17.136Z,2.90
2022-09-27T08:59:50.479Z,1.50
2022-09-27T09:02:22.939Z,4.03
2022-09-27T09:04:55.873Z,2.83
2022-09-27T09:07:44.055Z,4.17
2022-09-27T09:10:24.482Z,5.27
2022-09-27T09:12:58.287Z,3.00
2022-09-27T09:15:35.036Z,2.43
2022-09-27T09:18:15.849Z,1.70
2022-09-27T09:21:00.928Z,3.47
2022-09-27T09:23:42.766Z,1.53
2022-09-27T09:26:17.473Z,4.80
2022-09-27T09:29:02.020Z,6.23
2022-09-27T09:31:37.759Z,4.43
2022-09-27T09:34:12.748Z,2.97
2022-09-27T09:36:45.793Z,2.03
2022-09-27T09:39:20.056Z,4.10
2022-09-27T09:42:01.025Z,4.07
2022-09-27T09:44:34.606Z,6.53
2022-09-27T09:47:07.748Z,5.40
2022-09-27T09:49:40.948Z,3.07
2022-09-27T09:52:14.951Z,4.43
2022-09-27T09:54:49.168Z,3.50
2022-09-27T09:57:22.305Z,4.07
2022-09-27T09:59:56.983Z,5.40
2022-09-27T10:02:32.062Z,2.30
2022-09-27T10:05:09.891Z,5.03
2022-09-27T10:07:41.548Z,2.73
2022-09-27T10:10:15.457Z,2.90
2022-09-27T10:12:47.130Z,5.53
2022-09-27T10:15:19.679Z,2.80
2022-09-27T10:17:52.341Z,3.73
2022-09-27T10:20:30.579Z,3.97
2022-09-27T10:23:06.091Z,2.10
2022-09-27T10:25:49.871Z,2.40
2022-09-27T10:28:33.359Z,4.40
2022-09-27T10:31:05.893Z,3.00
2022-09-27T10:33:38.240Z,4.57
2022-09-27T10:36:22.798Z,2.20
2022-09-27T10:38:55.081Z,2.13
2022-09-27T10:41:32.596Z,1.83
2022-09-27T10:44:20.125Z,3.00
2022-09-27T10:46:52.632Z,3.37
2022-09-27T10:49:26.614Z,3.30
2022-09-27T10:51:58.885Z,3.33
2022-09-27T10:54:32.378Z,4.60
2022-09-27T10:57:06.336Z,3.37
2022-09-27T10:59:39.965Z,2.73
2022-09-27T11:02:19.186Z,5.83
2022-09-27T11:05:12.583Z,5.57
2022-09-27T11:07:49.891Z,3.70
2022-09-27T11:10:23.894Z,4.50
2022-09-27T11:13:07.983Z,2.70
2022-09-27T11:15:52.309Z,3.90
2022-09-27T11:18:27.810Z,2.70
2022-09-27T11:21:02.116Z,3.07
2022-09-27T11:23:42.788Z,2.83
2022-09-27T11:26:26.825Z,4.27
2022-09-27T11:29:05.970Z,3.23
2022-09-27T11:31:41.842Z,2.57
2022-09-27T11:34:38.462Z,8.10
2022-09-27T11:37:17.275Z,2.10
2022-09-27T11:40:01.516Z,9.73
2022-09-27T11:43:03.526Z,2.60
2022-09-27T11:46:10.695Z,2.47
2022-09-27T11:48:45.521Z,2.57
2022-09-27T11:51:28.537Z,5.43
2022-09-27T11:54:11.929Z,2.50
2022-09-27T11:56:47.337Z,5.23
2022-09-27T11:59:50.264Z,3.87
2022-09-27T12:02:36.888Z,3.87
2022-09-27T12:05:16.995Z,4.80
2022-09-27T12:07:52.194Z,3.00
2022-09-27T12:10:23.860Z,3.90
2022-09-27T12:12:56.737Z,6.20
2022-09-27T12:15:29.229Z,6.50
2022-09-27T12:18:07.562Z,3.73
2022-09-27T12:20:39.215Z,2.37
2022-09-27T12:23:12.122Z,2.47
2022-09-27T12:25:43.750Z,3.80
2022-09-27T12:28:19.224Z,3.17
2022-09-27T12:31:17.325Z,2.87
2022-09-27T12:33:54.806Z,2.60
2022-09-27T12:36:38.356Z,3.33
2022-09-27T12:39:11.568Z,5.70
2022-09-27T12:41:45.890Z,3.43
2022-09-27T12:44:17.529Z,5.33
2022-09-27T12:46:55.022Z,2.53
2022-09-27T12:49:33.090Z,4.77
2022-09-27T12:52:05.790Z,3.23
2022-09-27T12:54:55.665Z,3.83
2022-09-27T12:57:33.782Z,2.53
2022-09-27T13:00:09.999Z,3.03
2022-09-27T13:06:16.094Z,3.47
2022-09-27T13:09:18.920Z,3.07
2022-09-27T13:11:55.057Z,3.77
2022-09-27T13:14:27.724Z,3.97
2022-09-27T13:16:59.379Z,2.37
2022-09-27T13:19:38.980Z,3.50
2022-09-27T13:22:27.464Z,4.27
2022-09-27T13:24:59.152Z,5.83
2022-09-27T13:27:41.183Z,2.40
2022-09-27T13:30:45.905Z,2.03
2022-09-27T13:33:39.545Z,5.97
2022-09-27T13:36:30.157Z,5.47
2022-09-27T13:39:19.409Z,4.67
2022-09-27T13:41:59.214Z,1.97
2022-09-27T13:44:34.155Z,1.90
2022-09-27T13:47:15.448Z,3.90
2022-09-27T13:49:47.537Z,3.77
2022-09-27T13:52:20.214Z,3.43
2022-09-27T13:54:54.231Z,5.30
2022-09-27T13:57:43.137Z,2.40
2022-09-27T14:00:16.395Z,2.93
2022-09-27T14:03:01.572Z,2.03
2022-09-27T14:05:35.605Z,3.23
2022-09-27T14:08:07.343Z,3.00
2022-09-27T14:10:42.162Z,1.83
2022-09-27T14:13:13.794Z,2.60
2022-09-27T14:15:45.497Z,4.47
2022-09-27T14:18:17.197Z,1.53
2022-09-27T14:20:50.192Z,1.80
2022-09-27T14:23:22.524Z,4.00
2022-09-27T14:25:55.578Z,2.70
2022-09-27T14:28:28.733Z,2.50
2022-09-27T14:31:10.932Z,3.13
2022-09-27T14:33:42.843Z,4.70
2022-09-27T14:36:24.049Z,2.03
2022-09-27T14:38:55.741Z,1.30
2022-09-27T14:41:28.961Z,3.70
2022-09-27T14:44:00.757Z,2.13
2022-09-27T14:46:32.500Z,4.20
2022-09-27T14:49:12.291Z,5.90
2022-09-27T14:51:46.819Z,2.47
2022-09-27T14:54:22.434Z,2.70
2022-09-27T14:56:55.470Z,5.20
2022-09-27T14:59:28.211Z,4.57
2022-09-27T15:02:00.532Z,4.70
2022-09-27T15:04:32.267Z,5.13
2022-09-27T15:07:04.056Z,3.23
2022-09-27T15:09:35.709Z,3.33
2022-09-27T15:12:09.611Z,4.93
2022-09-27T15:14:41.344Z,4.60
2022-09-27T15:17:15.649Z,2.23
2022-09-27T15:19:57.416Z,3.70
2022-09-27T15:22:36.947Z,5.57
2022-09-27T15:25:19.441Z,10.00
2022-09-27T15:27:54.354Z,3.97
2022-09-27T15:30:29.849Z,5.87
2022-09-27T15:33:01.940Z,5.70
2022-09-27T15:35:34.650Z,5.93
2022-09-27T15:38:15.831Z,2.90
2022-09-27T15:41:14.373Z,2.50
2022-09-27T15:43:47.867Z,1.57
2022-09-27T15:46:33.541Z,1.33
2022-09-27T15:49:21.301Z,2.80
2022-09-27T15:51:53.238Z,2.17
2022-09-27T15:54:25.398Z,3.93
2022-09-27T15:56:57.645Z,3.27
2022-09-27T15:59:31.537Z,3.10
2022-09-27T16:02:07.697Z,4.80
2022-09-27T16:04:39.729Z,4.97
2022-09-27T16:07:11.405Z,2.50
2022-09-27T16:09:43.039Z,7.43
2022-09-27T16:12:14.925Z,1.50
2022-09-27T16:17:18.999Z,2.37
2022-09-27T16:19:51.092Z,2.40
2022-09-27T16:22:22.782Z,4.03
2022-09-27T16:24:54.437Z,6.07
2022-09-27T16:27:26.362Z,3.23
2022-09-27T16:29:58.034Z,2.97
2022-09-27T16:32:31.056Z,3.27
2022-09-27T16:35:03.284Z,3.27
2022-09-27T16:37:34.996Z,3.33
2022-09-27T16:40:08.289Z,4.40
2022-09-27T16:42:40.001Z,4.43
2022-09-27T16:45:14.617Z,4.00
2022-09-27T16:47:51.296Z,4.40
2022-09-27T16:50:22.932Z,5.37
2022-09-27T16:52:54.840Z,5.63
2022-09-27T16:55:26.765Z,6.73
2022-09-27T16:57:58.523Z,5.50
2022-09-27T17:00:30.177Z,7.03
2022-09-27T17:03:03.365Z,6.97
2022-09-27T17:05:35.034Z,9.87
2022-09-27T17:08:06.707Z,6.63
2022-09-27T17:10:38.370Z,4.90
2022-09-27T17:13:10.059Z,5.37
2022-09-27T17:15:41.815Z,5.40
2022-09-27T17:18:14.879Z,5.30
2022-09-27T17:20:46.785Z,4.87
2022-09-27T17:23:18.412Z,4.90
2022-09-27T17:25:50.069Z,5.57
2022-09-27T17:28:21.707Z,4.73
2022-09-27T17:30:53.569Z,3.93
2022-09-27T17:33:26.624Z,6.97
2022-09-27T17:35:59.185Z,4.10
2022-09-27T17:38:30.821Z,6.83
2022-09-27T17:41:02.777Z,5.33
2022-09-27T17:43:34.837Z,8.27
2022-09-27T17:46:07.354Z,10.60
2022-09-27T17:48:40.377Z,5.73
2022-09-27T17:51:12.710Z,11.00
2022-09-27T17:53:44.712Z,17.27
2022-09-27T17:56:16.768Z,10.73
2022-09-27T17:58:48.819Z,14.23
2022-09-27T18:01:21.210Z,8.40
2022-09-27T18:03:54.509Z,8.53
2022-09-27T18:06:26.487Z,8.13
2022-09-27T18:08:58.132Z,13.57
2022-09-27T18:11:29.836Z,5.53
2022-09-27T18:14:01.598Z,5.87
2022-09-27T18:16:34.269Z,6.47
2022-09-27T18:19:07.915Z,5.93
2022-09-27T18:21:39.574Z,7.43
2022-09-27T18:24:11.361Z,5.73
2022-09-27T18:26:43.068Z,6.60
2022-09-27T18:29:15.438Z,6.03
2022-09-27T18:31:48.737Z,6.63
2022-09-27T18:34:22.814Z,6.53
2022-09-27T18:36:54.482Z,8.23
2022-09-27T18:39:26.133Z,9.17
2022-09-27T18:41:57.784Z,8.50
2022-09-27T18:44:29.437Z,8.97
2022-09-27T18:47:01.089Z,11.17
2022-09-27T18:49:34.456Z,8.50
2022-09-27T18:52:06.523Z,21.03
2022-09-27T18:54:38.542Z,15.70
2022-09-27T18:57:10.557Z,15.37
2022-09-27T18:59:42.547Z,11.73
2022-09-27T19:02:14.237Z,8.03
2022-09-27T19:04:47.272Z,9.30
2022-09-27T19:07:19.267Z,8.60
2022-09-27T19:09:51.260Z,10.45
2022-09-27T19:12:22.953Z,9.00
2022-09-27T19:14:54.579Z,9.30
2022-09-27T19:17:26.220Z,8.70
2022-09-27T19:19:59.221Z,12.30
2022-09-27T19:22:30.869Z,8.57
2022-09-27T19:25:02.505Z,10.33
2022-09-27T19:27:34.527Z,7.90
2022-09-27T19:30:06.988Z,10.87
2022-09-27T19:32:39.035Z,9.30
2022-09-27T19:35:12.045Z,9.77
2022-09-27T19:37:44.068Z,9.90
2022-09-27T19:40:15.790Z,9.83
2022-09-27T19:42:51.009Z,8.43
2022-09-27T19:45:22.697Z,8.00
2022-09-27T19:47:54.350Z,9.83
2022-09-27T19:50:27.350Z,10.03
2022-09-27T19:52:59.354Z,7.60
2022-09-27T19:55:30.997Z,10.77
2022-09-27T19:58:02.630Z,10.57
2022-09-27T20:00:34.649Z,7.17
2022-09-27T20:03:06.344Z,9.37
2022-09-27T20:05:39.395Z,7.67
2022-09-27T20:08:11.054Z,8.13
2022-09-27T20:10:42.714Z,6.90
2022-09-27T20:13:14.346Z,8.30
2022-09-27T20:15:46.015Z,7.07
2022-09-27T20:18:17.891Z,8.63
2022-09-27T20:20:50.891Z,8.73
2022-09-27T20:23:22.550Z,9.20
2022-09-27T20:25:59.459Z,7.90
2022-09-27T20:28:31.108Z,7.97
2022-09-27T20:31:03.817Z,10.17
2022-09-27T20:33:35.484Z,6.03
2022-09-27T20:36:08.771Z,7.13
2022-09-27T20:38:40.485Z,6.57
2022-09-27T20:41:12.583Z,7.17
2022-09-27T20:43:44.433Z,8.43
2022-09-27T20:46:16.879Z,7.83
2022-09-27T20:48:51.110Z,7.53
2022-09-27T20:51:24.403Z,11.37
2022-09-27T20:53:56.037Z,7.47
2022-09-27T20:56:28.687Z,7.10
2022-09-27T20:59:01.187Z,7.20
2022-09-27T21:01:33.195Z,5.40
2022-09-27T21:04:05.043Z,7.67
2022-09-27T21:06:38.049Z,7.43
2022-09-27T21:09:10.296Z,7.43
2022-09-27T21:11:42.036Z,9.80
2022-09-27T21:14:13.731Z,9.40
2022-09-27T21:16:45.443Z,7.63
2022-09-27T21:19:17.322Z,6.77
2022-09-27T21:21:52.388Z,6.10
2022-09-27T21:24:24.025Z,6.27
2022-09-27T21:26:55.668Z,6.83
2022-09-27T21:29:27.307Z,7.03
2022-09-27T21:31:59.081Z,5.63
2022-09-27T21:34:30.781Z,8.13
2022-09-27T21:37:03.771Z,8.20
2022-09-27T21:39:35.401Z,6.53
2022-09-27T21:42:07.040Z,8.33
2022-09-27T21:44:38.698Z,6.47
2022-09-27T21:47:10.380Z,3.47
2022-09-27T21:49:42.036Z,5.40
2022-09-27T21:52:15.037Z,5.17
2022-09-27T21:54:46.673Z,4.37
2022-09-27T21:57:18.361Z,4.30
2022-09-27T21:59:50.003Z,8.97
